sensor_id;sensor_type;location;lat;lon;timestamp;pressure;altitude;pressure_sealevel;temperature
1532;BMP280;759;53.170;8.210;2022-10-16T00:00:19;99983.31;;;12.77
1532;BMP280;759;53.170;8.210;2022-10-16T00:02:44;99977.28;;;12.73
1532;BMP280;759;53.170;8.210;2022-10-16T00:05:10;99992.88;;;12.78
1532;BMP280;759;53.170;8.210;2022-10-16T00:07:35;99991.03;;;12.75
1532;BMP280;759;53.170;8.210;2022-10-16T00:10:00;99997.56;;;12.74
1532;BMP280;759;53.170;8.210;2022-10-16T00:12:25;99927.81;;;12.25
1532;BMP280;759;53.170;8.210;2022-10-16T00:14:51;99964.84;;;12.47
1532;BMP280;759;53.170;8.210;2022-10-16T00:17:17;99946.91;;;12.27
1532;BMP280;759;53.170;8.210;2022-10-16T00:19:42;99969.81;;;12.48
1532;BMP280;759;53.170;8.210;2022-10-16T00:22:07;99958.16;;;12.38
1532;BMP280;759;53.170;8.210;2022-10-16T00:24:32;99911.38;;;12.07
1532;BMP280;759;53.170;8.210;2022-10-16T00:26:58;100011.16;;;12.67
1532;BMP280;759;53.170;8.210;2022-10-16T00:29:23;99950.28;;;12.31
1532;BMP280;759;53.170;8.210;2022-10-16T00:31:48;99972.66;;;12.41
1532;BMP280;759;53.170;8.210;2022-10-16T00:34:15;99985.56;;;12.46
1532;BMP280;759;53.170;8.210;2022-10-16T00:36:40;99986.31;;;12.47
1532;BMP280;759;53.170;8.210;2022-10-16T00:39:05;100012.78;;;12.64
1532;BMP280;759;53.170;8.210;2022-10-16T00:41:32;100018.06;;;12.68
1532;BMP280;759;53.170;8.210;2022-10-16T00:44:03;100012.78;;;12.64
1532;BMP280;759;53.170;8.210;2022-10-16T00:46:47;99997.06;;;12.47
1532;BMP280;759;53.170;8.210;2022-10-16T00:49:15;100007.78;;;12.47
1532;BMP280;759;53.170;8.210;2022-10-16T00:51:43;100009.25;;;12.51
1532;BMP280;759;53.170;8.210;2022-10-16T00:54:13;100024.31;;;12.61
1532;BMP280;759;53.170;8.210;2022-10-16T00:56:40;100010.31;;;12.54
1532;BMP280;759;53.170;8.210;2022-10-16T00:59:11;100009.56;;;12.53
1532;BMP280;759;53.170;8.210;2022-10-16T01:01:39;100014.53;;;12.55
1532;BMP280;759;53.170;8.210;2022-10-16T01:04:04;99968.78;;;12.26
1532;BMP280;759;53.170;8.210;2022-10-16T01:06:46;100000.25;;;12.58
1532;BMP280;759;53.170;8.210;2022-10-16T01:09:18;100008.47;;;12.51
1532;BMP280;759;53.170;8.210;2022-10-16T01:14:40;99994.06;;;12.45
1532;BMP280;759;53.170;8.210;2022-10-16T01:17:12;99998.72;;;12.40
1532;BMP280;759;53.170;8.210;2022-10-16T01:20:09;99973.47;;;12.22
1532;BMP280;759;53.170;8.210;2022-10-16T01:22:43;99988.56;;;12.32
1532;BMP280;759;53.170;8.210;2022-10-16T01:25:19;100004.59;;;12.35
1532;BMP280;759;53.170;8.210;2022-10-16T01:27:48;99999.16;;;12.23
1532;BMP280;759;53.170;8.210;2022-10-16T01:30:18;100001.25;;;12.31
1532;BMP280;759;53.170;8.210;2022-10-16T01:32:53;99992.50;;;12.27
1532;BMP280;759;53.170;8.210;2022-10-16T01:35:36;99994.38;;;12.30
1532;BMP280;759;53.170;8.210;2022-10-16T01:38:19;99985.28;;;12.24
1532;BMP280;759;53.170;8.210;2022-10-16T01:40:50;99987.56;;;12.26
1532;BMP280;759;53.170;8.210;2022-10-16T01:43:23;99969.78;;;12.15
1532;BMP280;759;53.170;8.210;2022-10-16T01:45:51;99962.16;;;12.14
1532;BMP280;759;53.170;8.210;2022-10-16T01:48:18;99979.84;;;12.28
1532;BMP280;759;53.170;8.210;2022-10-16T01:50:53;100017.19;;;12.55
1532;BMP280;759;53.170;8.210;2022-10-16T01:53:20;100002.34;;;12.50
1532;BMP280;759;53.170;8.210;2022-10-16T01:55:47;100013.16;;;12.47
1532;BMP280;759;53.170;8.210;2022-10-16T01:58:13;100017.28;;;12.51
1532;BMP280;759;53.170;8.210;2022-10-16T02:00:42;100007.94;;;12.39
1532;BMP280;759;53.170;8.210;2022-10-16T02:03:11;100001.34;;;12.44
1532;BMP280;759;53.170;8.210;2022-10-16T02:05:41;100009.41;;;12.44
1532;BMP280;759;53.170;8.210;2022-10-16T02:08:09;100013.94;;;12.47
1532;BMP280;759;53.170;8.210;2022-10-16T02:10:36;100015.03;;;12.50
1532;BMP280;759;53.170;8.210;2022-10-16T02:13:11;100014.69;;;12.48
1532;BMP280;759;53.170;8.210;2022-10-16T02:15:38;100016.03;;;12.56
1532;BMP280;759;53.170;8.210;2022-10-16T02:18:05;100026.75;;;12.56
1532;BMP280;759;53.170;8.210;2022-10-16T02:23:20;100027.59;;;12.53
1532;BMP280;759;53.170;8.210;2022-10-16T02:25:50;100033.31;;;12.55
1532;BMP280;759;53.170;8.210;2022-10-16T02:28:23;100031.47;;;12.52
1532;BMP280;759;53.170;8.210;2022-10-16T02:30:58;100006.63;;;12.48
1532;BMP280;759;53.170;8.210;2022-10-16T02:33:25;100022.91;;;12.57
1532;BMP280;759;53.170;8.210;2022-10-16T02:35:52;100002.09;;;12.45
1532;BMP280;759;53.170;8.210;2022-10-16T02:38:19;99973.69;;;12.31
1532;BMP280;759;53.170;8.210;2022-10-16T02:40:45;100010.16;;;12.45
1532;BMP280;759;53.170;8.210;2022-10-16T02:43:11;100006.13;;;12.53
1532;BMP280;759;53.170;8.210;2022-10-16T02:45:37;100009.31;;;12.48
1532;BMP280;759;53.170;8.210;2022-10-16T02:48:02;100023.25;;;12.59
1532;BMP280;759;53.170;8.210;2022-10-16T02:50:28;100000.91;;;12.46
1532;BMP280;759;53.170;8.210;2022-10-16T02:52:53;99965.94;;;12.16
1532;BMP280;759;53.170;8.210;2022-10-16T02:55:19;99967.13;;;12.15
1532;BMP280;759;53.170;8.210;2022-10-16T02:57:44;99993.88;;;12.35
1532;BMP280;759;53.170;8.210;2022-10-16T03:00:12;100018.50;;;12.47
1532;BMP280;759;53.170;8.210;2022-10-16T03:02:37;100012.81;;;12.28
1532;BMP280;759;53.170;8.210;2022-10-16T03:05:03;100005.78;;;12.34
1532;BMP280;759;53.170;8.210;2022-10-16T03:07:28;100014.91;;;12.37
1532;BMP280;759;53.170;8.210;2022-10-16T03:09:54;100021.88;;;12.34
1532;BMP280;759;53.170;8.210;2022-10-16T03:12:20;100012.88;;;12.25
1532;BMP280;759;53.170;8.210;2022-10-16T03:14:46;100002.63;;;12.19
1532;BMP280;759;53.170;8.210;2022-10-16T03:17:11;99984.75;;;12.13
1532;BMP280;759;53.170;8.210;2022-10-16T03:19:37;100007.59;;;12.21
1532;BMP280;759;53.170;8.210;2022-10-16T03:22:03;100022.53;;;12.38
1532;BMP280;759;53.170;8.210;2022-10-16T03:24:28;100002.91;;;12.25
1532;BMP280;759;53.170;8.210;2022-10-16T03:26:53;99986.94;;;12.18
1532;BMP280;759;53.170;8.210;2022-10-16T03:29:19;100021.34;;;12.39
1532;BMP280;759;53.170;8.210;2022-10-16T03:31:44;100016.69;;;12.44
1532;BMP280;759;53.170;8.210;2022-10-16T03:34:09;99958.78;;;12.10
1532;BMP280;759;53.170;8.210;2022-10-16T03:36:34;99985.81;;;12.35
1532;BMP280;759;53.170;8.210;2022-10-16T03:39:00;100011.84;;;12.55
1532;BMP280;759;53.170;8.210;2022-10-16T03:41:25;99982.63;;;12.40
1532;BMP280;759;53.170;8.210;2022-10-16T03:43:50;99987.34;;;12.36
1532;BMP280;759;53.170;8.210;2022-10-16T03:46:15;99994.91;;;12.41
1532;BMP280;759;53.170;8.210;2022-10-16T03:48:41;100044.38;;;12.73
1532;BMP280;759;53.170;8.210;2022-10-16T03:51:06;99992.22;;;12.41
1532;BMP280;759;53.170;8.210;2022-10-16T03:53:31;100050.94;;;12.72
1532;BMP280;759;53.170;8.210;2022-10-16T03:55:57;99994.22;;;12.37
1532;BMP280;759;53.170;8.210;2022-10-16T03:58:22;100053.47;;;12.79
1532;BMP280;759;53.170;8.210;2022-10-16T04:00:47;100052.34;;;12.77
1532;BMP280;759;53.170;8.210;2022-10-16T04:03:13;100011.16;;;12.51
1532;BMP280;759;53.170;8.210;2022-10-16T04:05:39;100042.94;;;12.69
1532;BMP280;759;53.170;8.210;2022-10-16T04:08:04;100048.66;;;12.71
1532;BMP280;759;53.170;8.210;2022-10-16T04:10:30;100045.56;;;12.72
1532;BMP280;759;53.170;8.210;2022-10-16T04:12:55;100049.47;;;12.68
1532;BMP280;759;53.170;8.210;2022-10-16T04:15:24;100041.72;;;12.73
1532;BMP280;759;53.170;8.210;2022-10-16T04:17:50;100060.81;;;12.75
1532;BMP280;759;53.170;8.210;2022-10-16T04:20:15;100073.50;;;12.91
1532;BMP280;759;53.170;8.210;2022-10-16T04:22:40;99988.09;;;12.37
1532;BMP280;759;53.170;8.210;2022-10-16T04:25:06;100072.38;;;12.89
1532;BMP280;759;53.170;8.210;2022-10-16T04:27:31;100065.22;;;12.85
1532;BMP280;759;53.170;8.210;2022-10-16T04:29:57;100071.91;;;12.94
1532;BMP280;759;53.170;8.210;2022-10-16T04:32:23;100069.44;;;12.83
1532;BMP280;759;53.170;8.210;2022-10-16T04:34:48;100041.63;;;12.77
1532;BMP280;759;53.170;8.210;2022-10-16T04:37:13;100054.38;;;12.89
1532;BMP280;759;53.170;8.210;2022-10-16T04:39:38;100053.00;;;12.81
1532;BMP280;759;53.170;8.210;2022-10-16T04:42:04;100063.53;;;12.92
1532;BMP280;759;53.170;8.210;2022-10-16T04:44:29;100052.59;;;12.82
1532;BMP280;759;53.170;8.210;2022-10-16T04:46:54;100060.66;;;12.82
1532;BMP280;759;53.170;8.210;2022-10-16T04:49:19;100079.78;;;12.84
1532;BMP280;759;53.170;8.210;2022-10-16T04:51:45;100082.31;;;12.92
1532;BMP280;759;53.170;8.210;2022-10-16T04:54:10;100054.44;;;12.69
1532;BMP280;759;53.170;8.210;2022-10-16T04:56:35;100084.16;;;12.78
1532;BMP280;759;53.170;8.210;2022-10-16T04:59:08;100079.47;;;12.66
1532;BMP280;759;53.170;8.210;2022-10-16T05:01:33;100082.16;;;12.66
1532;BMP280;759;53.170;8.210;2022-10-16T05:03:58;100068.00;;;12.62
1532;BMP280;759;53.170;8.210;2022-10-16T05:06:24;100090.53;;;12.84
1532;BMP280;759;53.170;8.210;2022-10-16T05:08:49;100087.91;;;12.81
1532;BMP280;759;53.170;8.210;2022-10-16T05:11:14;100074.75;;;12.70
1532;BMP280;759;53.170;8.210;2022-10-16T05:13:39;100096.56;;;12.89
1532;BMP280;759;53.170;8.210;2022-10-16T05:16:05;100077.44;;;12.86
1532;BMP280;759;53.170;8.210;2022-10-16T05:18:30;100097.34;;;12.89
1532;BMP280;759;53.170;8.210;2022-10-16T05:20:56;100098.84;;;12.90
1532;BMP280;759;53.170;8.210;2022-10-16T05:23:21;100101.09;;;12.92
1532;BMP280;759;53.170;8.210;2022-10-16T05:25:57;100079.94;;;12.77
1532;BMP280;759;53.170;8.210;2022-10-16T05:28:24;100102.50;;;12.96
1532;BMP280;759;53.170;8.210;2022-10-16T05:30:49;100092.47;;;12.84
1532;BMP280;759;53.170;8.210;2022-10-16T05:33:14;100097.41;;;12.85
1532;BMP280;759;53.170;8.210;2022-10-16T05:35:40;100100.09;;;12.85
1532;BMP280;759;53.170;8.210;2022-10-16T05:38:05;100099.75;;;12.83
1532;BMP280;759;53.170;8.210;2022-10-16T05:40:30;100097.41;;;12.85
1532;BMP280;759;53.170;8.210;2022-10-16T05:42:55;100112.25;;;12.90
1532;BMP280;759;53.170;8.210;2022-10-16T05:45:21;100091.44;;;12.78
1532;BMP280;759;53.170;8.210;2022-10-16T05:47:46;100098.38;;;12.75
1532;BMP280;759;53.170;8.210;2022-10-16T05:50:11;100115.34;;;12.72
1532;BMP280;759;53.170;8.210;2022-10-16T05:52:36;100120.81;;;12.85
1532;BMP280;759;53.170;8.210;2022-10-16T05:55:02;100140.38;;;12.85
1532;BMP280;759;53.170;8.210;2022-10-16T05:57:27;100139.69;;;12.81
1532;BMP280;759;53.170;8.210;2022-10-16T05:59:53;100138.84;;;12.84
1532;BMP280;759;53.170;8.210;2022-10-16T06:02:18;100117.34;;;12.68
1532;BMP280;759;53.170;8.210;2022-10-16T06:04:43;100121.63;;;12.66
1532;BMP280;759;53.170;8.210;2022-10-16T06:07:09;100119.72;;;12.66
1532;BMP280;759;53.170;8.210;2022-10-16T06:09:34;100148.09;;;12.83
1532;BMP280;759;53.170;8.210;2022-10-16T06:11:59;100129.38;;;12.80
1532;BMP280;759;53.170;8.210;2022-10-16T06:14:24;100145.41;;;12.83
1532;BMP280;759;53.170;8.210;2022-10-16T06:16:49;100143.94;;;12.79
1532;BMP280;759;53.170;8.210;2022-10-16T06:19:15;100154.25;;;12.80
1532;BMP280;759;53.170;8.210;2022-10-16T06:21:41;100163.34;;;12.86
1532;BMP280;759;53.170;8.210;2022-10-16T06:24:06;100142.25;;;12.69
1532;BMP280;759;53.170;8.210;2022-10-16T06:26:32;100166.53;;;12.81
1532;BMP280;759;53.170;8.210;2022-10-16T06:28:58;100140.81;;;12.64
1532;BMP280;759;53.170;8.210;2022-10-16T06:31:24;100157.69;;;12.81
1532;BMP280;759;53.170;8.210;2022-10-16T06:33:55;100172.59;;;12.85
1532;BMP280;759;53.170;8.210;2022-10-16T06:36:21;100178.97;;;12.92
1532;BMP280;759;53.170;8.210;2022-10-16T06:38:47;100178.22;;;12.91
1532;BMP280;759;53.170;8.210;2022-10-16T06:41:15;100186.63;;;12.93
1532;BMP280;759;53.170;8.210;2022-10-16T06:43:41;100188.53;;;12.93
1532;BMP280;759;53.170;8.210;2022-10-16T06:46:08;100186.53;;;12.97
1532;BMP280;759;53.170;8.210;2022-10-16T06:48:35;100189.22;;;12.97
1532;BMP280;759;53.170;8.210;2022-10-16T06:51:03;100199.03;;;13.03
1532;BMP280;759;53.170;8.210;2022-10-16T06:53:34;100204.13;;;12.98
1532;BMP280;759;53.170;8.210;2022-10-16T06:56:13;100182.00;;;12.94
1532;BMP280;759;53.170;8.210;2022-10-16T06:58:39;100200.97;;;13.03
1532;BMP280;759;53.170;8.210;2022-10-16T07:01:06;100208.03;;;13.13
1532;BMP280;759;53.170;8.210;2022-10-16T07:03:32;100219.09;;;13.15
1532;BMP280;759;53.170;8.210;2022-10-16T07:06:01;100200.31;;;12.99
1532;BMP280;759;53.170;8.210;2022-10-16T07:08:27;100227.88;;;13.19
1532;BMP280;759;53.170;8.210;2022-10-16T07:11:02;100232.72;;;13.24
1532;BMP280;759;53.170;8.210;2022-10-16T07:13:28;100226.25;;;13.22
1532;BMP280;759;53.170;8.210;2022-10-16T07:15:53;100210.38;;;13.11
1532;BMP280;759;53.170;8.210;2022-10-16T07:18:18;100225.44;;;13.25
1532;BMP280;759;53.170;8.210;2022-10-16T07:20:43;100211.91;;;13.12
1532;BMP280;759;53.170;8.210;2022-10-16T07:23:09;100211.22;;;13.24
1532;BMP280;759;53.170;8.210;2022-10-16T07:25:34;100225.16;;;13.36
1532;BMP280;759;53.170;8.210;2022-10-16T07:27:59;100231.78;;;13.47
1532;BMP280;759;53.170;8.210;2022-10-16T07:30:24;100234.75;;;13.53
1532;BMP280;759;53.170;8.210;2022-10-16T07:32:50;100235.59;;;13.50
1532;BMP280;759;53.170;8.210;2022-10-16T07:35:15;100248.50;;;13.55
1532;BMP280;759;53.170;8.210;2022-10-16T07:37:44;100255.25;;;13.63
1532;BMP280;759;53.170;8.210;2022-10-16T07:40:09;100246.66;;;13.68
1532;BMP280;759;53.170;8.210;2022-10-16T07:42:35;100253.56;;;13.69
1532;BMP280;759;53.170;8.210;2022-10-16T07:45:00;100240.97;;;13.66
1532;BMP280;759;53.170;8.210;2022-10-16T07:47:25;100274.03;;;13.80
1532;BMP280;759;53.170;8.210;2022-10-16T07:49:51;100287.19;;;13.78
1532;BMP280;759;53.170;8.210;2022-10-16T07:52:16;100262.28;;;13.73
1532;BMP280;759;53.170;8.210;2022-10-16T07:54:41;100274.25;;;13.72
1532;BMP280;759;53.170;8.210;2022-10-16T07:57:06;100296.41;;;13.93
1532;BMP280;759;53.170;8.210;2022-10-16T07:59:32;100274.56;;;13.91
1532;BMP280;759;53.170;8.210;2022-10-16T08:01:57;100296.31;;;13.96
1532;BMP280;759;53.170;8.210;2022-10-16T08:04:22;100293.88;;;14.02
1532;BMP280;759;53.170;8.210;2022-10-16T08:06:47;100294.22;;;14.04
1532;BMP280;759;53.170;8.210;2022-10-16T08:09:14;100294.22;;;14.04
1532;BMP280;759;53.170;8.210;2022-10-16T08:11:39;100303.59;;;14.29
1532;BMP280;759;53.170;8.210;2022-10-16T08:14:04;100305.59;;;14.41
1532;BMP280;759;53.170;8.210;2022-10-16T08:16:29;100302.84;;;14.57
1532;BMP280;759;53.170;8.210;2022-10-16T08:18:55;100320.78;;;14.77
1532;BMP280;759;53.170;8.210;2022-10-16T08:21:21;100325.44;;;14.89
1532;BMP280;759;53.170;8.210;2022-10-16T08:23:52;100310.91;;;14.86
1532;BMP280;759;53.170;8.210;2022-10-16T08:26:17;100314.66;;;14.89
1532;BMP280;759;53.170;8.210;2022-10-16T08:28:44;100330.09;;;15.01
1532;BMP280;759;53.170;8.210;2022-10-16T08:31:11;100308.44;;;15.05
1532;BMP280;759;53.170;8.210;2022-10-16T08:33:38;100340.81;;;15.30
1532;BMP280;759;53.170;8.210;2022-10-16T08:36:04;100337.59;;;15.36
1532;BMP280;759;53.170;8.210;2022-10-16T08:38:30;100335.41;;;15.30
1532;BMP280;759;53.170;8.210;2022-10-16T08:44:27;100341.44;;;15.35
1532;BMP280;759;53.170;8.210;2022-10-16T08:47:10;100338.13;;;15.30
1532;BMP280;759;53.170;8.210;2022-10-16T08:49:41;100332.69;;;15.18
1532;BMP280;759;53.170;8.210;2022-10-16T08:52:12;100343.81;;;15.32
1532;BMP280;759;53.170;8.210;2022-10-16T08:54:43;100332.41;;;15.28
1532;BMP280;759;53.170;8.210;2022-10-16T08:57:14;100353.75;;;15.36
1532;BMP280;759;53.170;8.210;2022-10-16T08:59:41;100348.44;;;15.32
1532;BMP280;759;53.170;8.210;2022-10-16T09:05:10;100368.78;;;15.20
1532;BMP280;759;53.170;8.210;2022-10-16T09:13:18;100352.44;;;15.15
1532;BMP280;759;53.170;8.210;2022-10-16T09:15:55;100379.22;;;15.47
1532;BMP280;759;53.170;8.210;2022-10-16T09:18:38;100355.78;;;15.44
1532;BMP280;759;53.170;8.210;2022-10-16T09:23:43;100384.34;;;15.67
1532;BMP280;759;53.170;8.210;2022-10-16T09:26:12;100375.72;;;15.60
1532;BMP280;759;53.170;8.210;2022-10-16T09:28:37;100387.28;;;15.47
1532;BMP280;759;53.170;8.210;2022-10-16T09:31:03;100382.84;;;15.41
1532;BMP280;759;53.170;8.210;2022-10-16T09:33:38;100388.56;;;15.56
1532;BMP280;759;53.170;8.210;2022-10-16T09:36:05;100404.00;;;15.68
1532;BMP280;759;53.170;8.210;2022-10-16T09:38:34;100373.78;;;15.60
1532;BMP280;759;53.170;8.210;2022-10-16T09:41:03;100408.41;;;15.87
1532;BMP280;759;53.170;8.210;2022-10-16T09:43:59;100412.81;;;15.94
1532;BMP280;759;53.170;8.210;2022-10-16T09:48:56;100392.53;;;16.02
1532;BMP280;759;53.170;8.210;2022-10-16T09:51:30;100430.88;;;16.32
1532;BMP280;759;53.170;8.210;2022-10-16T09:56:34;100408.13;;;16.20
1532;BMP280;759;53.170;8.210;2022-10-16T09:59:08;100441.19;;;16.59
1532;BMP280;759;53.170;8.210;2022-10-16T10:01:39;100444.41;;;16.66
1532;BMP280;759;53.170;8.210;2022-10-16T10:04:05;100431.47;;;16.61
1532;BMP280;759;53.170;8.210;2022-10-16T10:06:36;100447.94;;;16.76
1532;BMP280;759;53.170;8.210;2022-10-16T10:09:04;100449.06;;;16.88
1532;BMP280;759;53.170;8.210;2022-10-16T10:14:47;100441.00;;;16.75
1532;BMP280;759;53.170;8.210;2022-10-16T10:17:19;100451.44;;;16.86
1532;BMP280;759;53.170;8.210;2022-10-16T10:19:46;100455.03;;;16.83
1532;BMP280;759;53.170;8.210;2022-10-16T10:22:25;100463.50;;;16.72
1532;BMP280;759;53.170;8.210;2022-10-16T10:30:11;100473.34;;;16.66
1532;BMP280;759;53.170;8.210;2022-10-16T10:38:16;100480.84;;;16.84
1532;BMP280;759;53.170;8.210;2022-10-16T10:40:51;100487.09;;;16.94
1532;BMP280;759;53.170;8.210;2022-10-16T10:46:32;100488.41;;;17.33
1532;BMP280;759;53.170;8.210;2022-10-16T10:51:31;100500.34;;;17.45
1532;BMP280;759;53.170;8.210;2022-10-16T10:56:39;100499.41;;;17.48
1532;BMP280;759;53.170;8.210;2022-10-16T10:59:25;100506.34;;;17.49
1532;BMP280;759;53.170;8.210;2022-10-16T11:04:42;100503.19;;;17.50
1532;BMP280;759;53.170;8.210;2022-10-16T11:07:30;100506.25;;;17.62
1532;BMP280;759;53.170;8.210;2022-10-16T11:09:57;100508.59;;;17.81
1532;BMP280;759;53.170;8.210;2022-10-16T11:12:28;100519.16;;;17.89
1532;BMP280;759;53.170;8.210;2022-10-16T11:17:22;100513.63;;;17.70
1532;BMP280;759;53.170;8.210;2022-10-16T11:19:54;100525.91;;;17.84
1532;BMP280;759;53.170;8.210;2022-10-16T11:24:57;100520.22;;;17.60
1532;BMP280;759;53.170;8.210;2022-10-16T11:30:13;100536.38;;;17.73
1532;BMP280;759;53.170;8.210;2022-10-16T11:35:25;100540.97;;;17.63
1532;BMP280;759;53.170;8.210;2022-10-16T11:37:57;100554.88;;;17.74
1532;BMP280;759;53.170;8.210;2022-10-16T11:40:42;100551.84;;;17.72
1532;BMP280;759;53.170;8.210;2022-10-16T11:46:17;100548.69;;;17.43
1532;BMP280;759;53.170;8.210;2022-10-16T11:48:51;100565.91;;;17.36
1532;BMP280;759;53.170;8.210;2022-10-16T11:53:55;100570.25;;;17.33
1532;BMP280;759;53.170;8.210;2022-10-16T11:56:22;100571.22;;;17.40
1532;BMP280;759;53.170;8.210;2022-10-16T11:58:52;100569.41;;;17.46
1532;BMP280;759;53.170;8.210;2022-10-16T12:01:27;100572.75;;;17.50
1532;BMP280;759;53.170;8.210;2022-10-16T12:04:05;100582.31;;;17.42
1532;BMP280;759;53.170;8.210;2022-10-16T12:06:46;100584.34;;;17.28
1532;BMP280;759;53.170;8.210;2022-10-16T12:09:15;100576.53;;;17.30
1532;BMP280;759;53.170;8.210;2022-10-16T12:11:44;100578.84;;;17.41
1532;BMP280;759;53.170;8.210;2022-10-16T12:17:00;100579.84;;;17.56
1532;BMP280;759;53.170;8.210;2022-10-16T12:19:25;100593.56;;;17.62
1532;BMP280;759;53.170;8.210;2022-10-16T12:21:51;100595.03;;;17.54
1532;BMP280;759;53.170;8.210;2022-10-16T12:26:51;100607.72;;;17.22
1532;BMP280;759;53.170;8.210;2022-10-16T12:29:27;100607.94;;;17.15
1532;BMP280;759;53.170;8.210;2022-10-16T12:31:53;100611.03;;;17.39
1532;BMP280;759;53.170;8.210;2022-10-16T12:34:28;100611.78;;;17.40
1532;BMP280;759;53.170;8.210;2022-10-16T12:36:54;100615.28;;;17.49
1532;BMP280;759;53.170;8.210;2022-10-16T12:39:20;100617.50;;;17.64
1532;BMP280;759;53.170;8.210;2022-10-16T12:41:47;100630.34;;;17.81
1532;BMP280;759;53.170;8.210;2022-10-16T12:44:23;100629.22;;;17.92
1532;BMP280;759;53.170;8.210;2022-10-16T12:46:51;100629.00;;;18.08
1532;BMP280;759;53.170;8.210;2022-10-16T12:49:29;100635.31;;;18.14
1532;BMP280;759;53.170;8.210;2022-10-16T12:51:55;100641.72;;;18.29
1532;BMP280;759;53.170;8.210;2022-10-16T12:54:30;100637.94;;;18.27
1532;BMP280;759;53.170;8.210;2022-10-16T13:17:09;100637.69;;;17.50
1532;BMP280;759;53.170;8.210;2022-10-16T13:22:39;100655.97;;;17.90
1532;BMP280;759;53.170;8.210;2022-10-16T13:25:28;100670.75;;;17.98
1532;BMP280;759;53.170;8.210;2022-10-16T13:30:25;100670.38;;;17.87
1532;BMP280;759;53.170;8.210;2022-10-16T13:32:54;100678.94;;;18.07
1532;BMP280;759;53.170;8.210;2022-10-16T13:35:22;100681.47;;;18.01
1532;BMP280;759;53.170;8.210;2022-10-16T13:37:48;100681.97;;;18.09
1532;BMP280;759;53.170;8.210;2022-10-16T13:40:18;100678.81;;;18.11
1532;BMP280;759;53.170;8.210;2022-10-16T13:42:44;100687.06;;;18.07
1532;BMP280;759;53.170;8.210;2022-10-16T13:48:04;100698.44;;;18.02
1532;BMP280;759;53.170;8.210;2022-10-16T13:50:30;100704.75;;;17.99
1532;BMP280;759;53.170;8.210;2022-10-16T13:55:50;100708.47;;;17.92
1532;BMP280;759;53.170;8.210;2022-10-16T13:58:15;100711.13;;;17.83
1532;BMP280;759;53.170;8.210;2022-10-16T14:00:42;100708.59;;;17.89
1532;BMP280;759;53.170;8.210;2022-10-16T14:03:17;100707.78;;;17.79
1532;BMP280;759;53.170;8.210;2022-10-16T14:06:05;100716.41;;;17.87
1532;BMP280;759;53.170;8.210;2022-10-16T14:08:29;100730.31;;;17.98
1532;BMP280;759;53.170;8.210;2022-10-16T14:10:56;100730.88;;;17.93
1532;BMP280;759;53.170;8.210;2022-10-16T14:15:56;100725.28;;;18.09
1532;BMP280;759;53.170;8.210;2022-10-16T14:18:24;100733.47;;;18.18
1532;BMP280;759;53.170;8.210;2022-10-16T14:20:50;100730.75;;;17.96
1532;BMP280;759;53.170;8.210;2022-10-16T14:23:29;100734.19;;;17.97
1532;BMP280;759;53.170;8.210;2022-10-16T14:26:05;100748.53;;;18.06
1532;BMP280;759;53.170;8.210;2022-10-16T14:28:30;100744.16;;;18.00
1532;BMP280;759;53.170;8.210;2022-10-16T14:30:57;100705.00;;;17.70
1532;BMP280;759;53.170;8.210;2022-10-16T14:33:33;100684.78;;;17.40
1532;BMP280;759;53.170;8.210;2022-10-16T14:38:30;100690.75;;;17.34
1532;BMP280;759;53.170;8.210;2022-10-16T14:41:00;100721.91;;;17.61
1532;BMP280;759;53.170;8.210;2022-10-16T14:43:35;100717.06;;;17.56
1532;BMP280;759;53.170;8.210;2022-10-16T14:46:03;100731.22;;;17.60
1532;BMP280;759;53.170;8.210;2022-10-16T14:48:30;100739.03;;;17.58
1532;BMP280;759;53.170;8.210;2022-10-16T14:50:55;100695.19;;;17.28
1532;BMP280;759;53.170;8.210;2022-10-16T14:53:21;100724.06;;;17.31
1532;BMP280;759;53.170;8.210;2022-10-16T14:55:46;100740.47;;;17.50
1532;BMP280;759;53.170;8.210;2022-10-16T14:58:15;100740.06;;;17.39
1532;BMP280;759;53.170;8.210;2022-10-16T15:00:41;100707.97;;;17.15
1532;BMP280;759;53.170;8.210;2022-10-16T15:03:07;100747.19;;;17.32
1532;BMP280;759;53.170;8.210;2022-10-16T15:05:32;100734.69;;;17.13
1532;BMP280;759;53.170;8.210;2022-10-16T15:07:57;100765.16;;;17.26
1532;BMP280;759;53.170;8.210;2022-10-16T15:10:23;100774.81;;;17.27
1532;BMP280;759;53.170;8.210;2022-10-16T15:12:49;100724.34;;;16.99
1532;BMP280;759;53.170;8.210;2022-10-16T15:15:51;100769.06;;;17.25
1532;BMP280;759;53.170;8.210;2022-10-16T15:18:17;100757.84;;;17.14
1532;BMP280;759;53.170;8.210;2022-10-16T15:20:47;100771.69;;;17.16
1532;BMP280;759;53.170;8.210;2022-10-16T15:23:13;100774.91;;;17.11
1532;BMP280;759;53.170;8.210;2022-10-16T15:28:09;100759.69;;;16.92
1532;BMP280;759;53.170;8.210;2022-10-16T15:30:36;100777.72;;;16.95
1532;BMP280;759;53.170;8.210;2022-10-16T15:33:02;100786.28;;;16.93
1532;BMP280;759;53.170;8.210;2022-10-16T15:35:28;100777.97;;;16.87
1532;BMP280;759;53.170;8.210;2022-10-16T15:37:53;100787.25;;;16.86
1532;BMP280;759;53.170;8.210;2022-10-16T15:40:22;100781.50;;;16.84
1532;BMP280;759;53.170;8.210;2022-10-16T15:42:48;100764.72;;;16.64
1532;BMP280;759;53.170;8.210;2022-10-16T15:45:14;100772.09;;;16.63
1532;BMP280;759;53.170;8.210;2022-10-16T15:47:42;100763.44;;;16.56
1532;BMP280;759;53.170;8.210;2022-10-16T15:50:10;100767.31;;;16.55
1532;BMP280;759;53.170;8.210;2022-10-16T15:52:36;100758.75;;;16.43
1532;BMP280;759;53.170;8.210;2022-10-16T15:55:02;100767.28;;;16.42
1532;BMP280;759;53.170;8.210;2022-10-16T15:57:28;100783.25;;;16.36
1532;BMP280;759;53.170;8.210;2022-10-16T15:59:54;100786.06;;;16.33
1532;BMP280;759;53.170;8.210;2022-10-16T16:02:19;100776.41;;;16.19
1532;BMP280;759;53.170;8.210;2022-10-16T16:04:45;100776.94;;;16.14
1532;BMP280;759;53.170;8.210;2022-10-16T16:07:10;100763.72;;;16.03
1532;BMP280;759;53.170;8.210;2022-10-16T16:09:35;100779.34;;;15.95
1532;BMP280;759;53.170;8.210;2022-10-16T16:12:01;100787.59;;;15.88
1532;BMP280;759;53.170;8.210;2022-10-16T16:14:27;100773.13;;;15.66
1532;BMP280;759;53.170;8.210;2022-10-16T16:16:55;100797.22;;;15.73
1532;BMP280;759;53.170;8.210;2022-10-16T16:19:21;100799.97;;;15.57
1532;BMP280;759;53.170;8.210;2022-10-16T16:21:47;100775.34;;;15.38
1532;BMP280;759;53.170;8.210;2022-10-16T16:24:12;100798.78;;;15.41
1532;BMP280;759;53.170;8.210;2022-10-16T16:26:38;100799.84;;;15.27
1532;BMP280;759;53.170;8.210;2022-10-16T16:29:05;100768.88;;;14.99
1532;BMP280;759;53.170;8.210;2022-10-16T16:31:31;100810.88;;;15.17